Time;durP1;ratioP1;P1;durP2;ratioP2;P2;SDS_P1;SDS_P2;PMS_P1;PMS_P2;Temp;Humidity;BMP_temperature;BMP_pressure;BME280_temperature;BME280_humidity;BME280_pressure;Samples;Min_cycle;Max_cycle;Signal;HPM_P1;HPM_P2
2022/12/12 00:00:50;;;;;;;16.30;8.18;;;;;;;;;;4745342;30;20032;-80
2022/12/12 00:03:15;;;;;;;17.75;8.98;;;;;;;;;;4751991;30;20055;-80
2022/12/12 00:05:41;;;;;;;15.07;8.27;;;;;;;;;;4758703;30;20031;-81
2022/12/12 00:08:06;;;;;;;17.08;8.40;;;;;;;;;;4759736;30;20110;-80
2022/12/12 00:10:33;;;;;;;16.65;8.85;;;;;;;;;;4745263;30;20470;-81
2022/12/12 00:12:58;;;;;;;16.20;8.63;;;;;;;;;;4768363;30;20028;-80
2022/12/12 00:15:24;;;;;;;17.55;8.65;;;;;;;;;;4766262;30;20510;-81
2022/12/12 00:17:49;;;;;;;16.55;8.70;;;;;;;;;;4770618;30;20043;-81
2022/12/12 00:20:14;;;;;;;14.80;8.32;;;;;;;;;;4766787;30;20172;-81
2022/12/12 00:22:40;;;;;;;17.30;8.10;;;;;;;;;;4747814;30;20036;-79
2022/12/12 00:25:06;;;;;;;17.85;8.90;;;;;;;;;;4762947;30;20059;-81
2022/12/12 00:27:32;;;;;;;15.35;7.90;;;;;;;;;;4750329;30;20039;-81
2022/12/12 00:29:57;;;;;;;15.75;7.60;;;;;;;;;;4753652;30;20566;-81
2022/12/12 00:32:23;;;;;;;14.45;7.82;;;;;;;;;;4752330;30;20032;-81
2022/12/12 00:34:49;;;;;;;16.50;8.52;;;;;;;;;;4766423;30;20811;-81
2022/12/12 00:37:15;;;;;;;18.67;8.80;;;;;;;;;;4748213;30;20036;-80
2022/12/12 00:39:40;;;;;;;15.48;7.90;;;;;;;;;;4761310;30;20724;-80
2022/12/12 00:42:06;;;;;;;15.32;7.68;;;;;;;;;;4763938;30;20028;-79
2022/12/12 00:44:31;;;;;;;17.30;8.38;;;;;;;;;;4751658;30;20051;-81
2022/12/12 00:46:56;;;;;;;15.77;8.32;;;;;;;;;;4749417;30;20508;-81
2022/12/12 00:49:22;;;;;;;15.68;8.13;;;;;;;;;;4749532;30;20027;-79
2022/12/12 00:51:47;;;;;;;16.70;8.38;;;;;;;;;;4761841;30;20039;-81
2022/12/12 00:54:13;;;;;;;14.00;7.15;;;;;;;;;;4747608;30;20123;-81
2022/12/12 00:56:39;;;;;;;17.40;8.60;;;;;;;;;;4744797;30;20094;-81
2022/12/12 00:59:04;;;;;;;15.68;8.18;;;;;;;;;;4756942;30;20852;-81
2022/12/12 01:01:31;;;;;;;17.85;8.50;;;;;;;;;;4760623;30;20114;-81
2022/12/12 01:03:58;;;;;;;16.80;8.38;;;;;;;;;;4757599;30;20394;-81
2022/12/12 01:06:24;;;;;;;16.92;7.85;;;;;;;;;;4741661;30;20032;-81
2022/12/12 01:08:50;;;;;;;13.77;7.28;;;;;;;;;;4750052;30;20051;-81
2022/12/12 01:11:16;;;;;;;15.13;8.25;;;;;;;;;;4742990;30;20446;-81
2022/12/12 01:13:42;;;;;;;15.75;8.35;;;;;;;;;;4766258;30;20439;-81
2022/12/12 01:16:08;;;;;;;16.65;9.05;;;;;;;;;;4768228;30;20076;-81
2022/12/12 01:18:35;;;;;;;15.85;8.45;;;;;;;;;;4741601;30;20063;-82
2022/12/12 01:21:00;;;;;;;15.02;8.35;;;;;;;;;;4762605;30;20033;-81
2022/12/12 01:23:26;;;;;;;15.02;7.65;;;;;;;;;;4765808;30;20388;-79
2022/12/12 01:26:08;;;;;;;14.68;7.70;;;;;;;;;;4744712;30;20047;-81
2022/12/12 01:28:34;;;;;;;15.50;7.88;;;;;;;;;;4762366;30;20058;-78
2022/12/12 01:30:59;;;;;;;15.65;8.43;;;;;;;;;;4745621;30;20051;-80
2022/12/12 01:33:25;;;;;;;15.13;7.43;;;;;;;;;;4761648;30;20486;-81
2022/12/12 01:35:51;;;;;;;16.50;7.95;;;;;;;;;;4759190;30;22989;-81
2022/12/12 01:38:16;;;;;;;16.08;8.10;;;;;;;;;;4757471;30;20036;-82
2022/12/12 01:40:42;;;;;;;14.63;7.90;;;;;;;;;;4753838;30;20516;-81
2022/12/12 01:43:11;;;;;;;16.42;8.40;;;;;;;;;;4760576;30;20086;-81
2022/12/12 01:46:01;;;;;;;16.90;8.95;;;;;;;;;;4742194;30;20550;-80
2022/12/12 01:48:51;;;;;;;14.82;8.15;;;;;;;;;;4762909;30;20027;-81
2022/12/12 01:51:21;;;;;;;15.10;8.15;;;;;;;;;;4739902;30;20040;-82
2022/12/12 01:53:49;;;;;;;15.50;8.68;;;;;;;;;;4747559;30;20031;-82
2022/12/12 01:56:18;;;;;;;16.70;8.07;;;;;;;;;;4746318;30;20570;-81
2022/12/12 01:58:46;;;;;;;14.32;7.88;;;;;;;;;;4763962;30;20523;-82
2022/12/12 02:01:13;;;;;;;15.05;7.70;;;;;;;;;;4761587;30;20478;-82
2022/12/12 02:03:40;;;;;;;16.60;8.35;;;;;;;;;;4746233;30;20050;-81
2022/12/12 02:06:10;;;;;;;16.63;8.23;;;;;;;;;;4758664;30;20588;-81
2022/12/12 02:08:37;;;;;;;17.65;8.57;;;;;;;;;;4756636;30;20354;-82
2022/12/12 02:11:02;;;;;;;16.88;8.10;;;;;;;;;;4755136;30;20036;-82
2022/12/12 02:13:30;;;;;;;14.10;7.43;;;;;;;;;;4747034;30;20477;-81
2022/12/12 02:16:06;;;;;;;15.02;7.85;;;;;;;;;;4753970;30;20109;-79
2022/12/12 02:18:59;;;;;;;16.38;8.15;;;;;;;;;;4759049;30;20208;-81
2022/12/12 02:21:46;;;;;;;16.80;7.90;;;;;;;;;;4759520;30;20511;-79
2022/12/12 02:24:40;;;;;;;12.95;7.57;;;;;;;;;;4750289;30;20097;-81
2022/12/12 02:27:49;;;;;;;15.35;7.88;;;;;;;;;;4743470;30;20044;-82
2022/12/12 02:30:23;;;;;;;15.60;8.13;;;;;;;;;;4745905;30;20051;-81
2022/12/12 02:32:49;;;;;;;16.42;7.85;;;;;;;;;;4757898;30;20070;-82
2022/12/12 02:35:38;;;;;;;15.27;7.88;;;;;;;;;;4763803;30;20063;-80
2022/12/12 02:38:21;;;;;;;15.20;8.07;;;;;;;;;;4762261;30;20120;-82
2022/12/12 02:41:09;;;;;;;16.10;8.65;;;;;;;;;;4751108;30;20553;-81
2022/12/12 02:43:38;;;;;;;14.60;7.78;;;;;;;;;;4761832;30;20105;-79
2022/12/12 02:46:44;;;;;;;17.08;8.98;;;;;;;;;;4742371;30;20122;-79
2022/12/12 02:49:16;;;;;;;15.52;7.97;;;;;;;;;;4746412;30;20055;-81
2022/12/12 02:51:41;;;;;;;16.38;8.07;;;;;;;;;;4754644;30;20040;-82
2022/12/12 02:54:17;;;;;;;16.70;8.45;;;;;;;;;;4740191;30;20039;-81
2022/12/12 02:56:50;;;;;;;15.70;8.20;;;;;;;;;;4749161;30;20516;-82
2022/12/12 02:59:21;;;;;;;15.75;8.63;;;;;;;;;;4748038;30;20166;-81
2022/12/12 03:02:05;;;;;;;15.45;7.70;;;;;;;;;;4740703;30;20813;-81
2022/12/12 03:10:26;;;;;;;15.93;8.38;;;;;;;;;;4766869;30;20097;-82
2022/12/12 03:13:07;;;;;;;13.98;8.18;;;;;;;;;;4750523;30;20409;-78
2022/12/12 03:15:38;;;;;;;15.40;8.25;;;;;;;;;;4750299;30;20141;-81
2022/12/12 03:18:13;;;;;;;17.33;8.43;;;;;;;;;;4744803;30;20060;-81
2022/12/12 03:20:52;;;;;;;18.95;8.35;;;;;;;;;;4761768;30;20628;-78
2022/12/12 03:23:25;;;;;;;17.73;8.30;;;;;;;;;;4759335;30;20371;-80
2022/12/12 03:25:57;;;;;;;16.63;8.60;;;;;;;;;;4743138;30;20040;-80
2022/12/12 03:28:28;;;;;;;13.50;7.50;;;;;;;;;;4744970;30;20515;-81
2022/12/12 03:30:57;;;;;;;15.40;8.80;;;;;;;;;;4757323;30;20040;-81
2022/12/12 03:33:50;;;;;;;17.25;8.43;;;;;;;;;;4764484;30;20035;-82
2022/12/12 03:36:25;;;;;;;13.98;8.20;;;;;;;;;;4765101;30;20590;-79
2022/12/12 03:39:09;;;;;;;17.13;9.07;;;;;;;;;;4762674;30;20089;-82
2022/12/12 03:41:40;;;;;;;15.75;8.82;;;;;;;;;;4750486;30;20043;-81
2022/12/12 03:44:27;;;;;;;15.43;7.63;;;;;;;;;;4747346;30;20070;-82
2022/12/12 03:46:58;;;;;;;14.23;7.35;;;;;;;;;;4750682;30;20413;-81
2022/12/12 03:49:30;;;;;;;16.95;8.82;;;;;;;;;;4763022;30;20102;-81
2022/12/12 03:52:05;;;;;;;18.13;8.65;;;;;;;;;;4768215;30;20115;-80
2022/12/12 03:54:43;;;;;;;17.98;8.52;;;;;;;;;;4761362;30;20449;-81
2022/12/12 03:57:11;;;;;;;15.40;7.72;;;;;;;;;;4761227;30;20470;-81
2022/12/12 03:59:58;;;;;;;14.57;8.32;;;;;;;;;;4762847;30;20032;-81
2022/12/12 04:02:37;;;;;;;15.23;8.13;;;;;;;;;;4759509;30;20149;-81
2022/12/12 04:05:12;;;;;;;17.02;8.45;;;;;;;;;;4757436;30;20040;-81
2022/12/12 04:07:48;;;;;;;16.08;7.25;;;;;;;;;;4749979;30;20553;-81
2022/12/12 04:13:04;;;;;;;15.75;8.20;;;;;;;;;;4759537;30;20034;-81
2022/12/12 04:16:07;;;;;;;15.13;8.10;;;;;;;;;;4767584;30;20404;-81
2022/12/12 04:18:41;;;;;;;;;;;;;;;;;;4737395;30;20058;-81
2022/12/12 04:24:21;;;;;;;18.58;8.70;;;;;;;;;;4760634;30;20428;-81
2022/12/12 04:27:00;;;;;;;15.68;7.65;;;;;;;;;;4760515;30;20032;-81
2022/12/12 04:29:46;;;;;;;15.63;8.30;;;;;;;;;;4759612;30;20035;-81
2022/12/12 04:32:26;;;;;;;14.60;7.78;;;;;;;;;;4745365;30;20060;-81
2022/12/12 04:35:06;;;;;;;18.25;8.15;;;;;;;;;;4767096;30;20076;-81
2022/12/12 04:37:37;;;;;;;17.10;7.88;;;;;;;;;;4749949;30;20128;-81
2022/12/12 04:40:07;;;;;;;16.73;8.65;;;;;;;;;;4749445;30;20067;-81
2022/12/12 04:42:39;;;;;;;18.77;8.40;;;;;;;;;;4748395;30;20039;-81
2022/12/12 04:45:08;;;;;;;14.73;8.30;;;;;;;;;;4747481;30;20039;-81
2022/12/12 04:47:37;;;;;;;16.92;8.52;;;;;;;;;;4763809;30;20040;-81
2022/12/12 04:50:05;;;;;;;16.75;8.85;;;;;;;;;;4748636;30;20047;-81
2022/12/12 04:52:33;;;;;;;16.10;8.60;;;;;;;;;;4761048;30;20031;-80
2022/12/12 04:55:09;;;;;;;17.25;8.80;;;;;;;;;;4745181;30;20027;-80
2022/12/12 04:57:39;;;;;;;19.25;9.63;;;;;;;;;;4762919;30;20036;-81
2022/12/12 05:00:07;;;;;;;18.20;8.85;;;;;;;;;;4759302;30;20044;-81
2022/12/12 05:02:41;;;;;;;17.60;9.18;;;;;;;;;;4763902;30;20063;-79
2022/12/12 05:05:30;;;;;;;17.10;8.55;;;;;;;;;;4747554;30;20044;-81
2022/12/12 05:08:01;;;;;;;15.68;7.70;;;;;;;;;;4742696;30;20421;-80
2022/12/12 05:10:27;;;;;;;18.08;9.40;;;;;;;;;;4740250;30;20047;-81
2022/12/12 05:12:57;;;;;;;15.88;8.15;;;;;;;;;;4749362;30;20425;-81
2022/12/12 05:15:25;;;;;;;15.98;8.52;;;;;;;;;;4761400;30;20805;-81
2022/12/12 05:17:57;;;;;;;16.73;8.45;;;;;;;;;;4760270;30;20118;-81
2022/12/12 05:20:23;;;;;;;17.40;9.30;;;;;;;;;;4750272;30;20100;-81
2022/12/12 05:22:48;;;;;;;18.05;8.50;;;;;;;;;;4761333;30;20035;-81
2022/12/12 05:25:13;;;;;;;17.27;8.52;;;;;;;;;;4746627;30;20028;-81
2022/12/12 05:27:39;;;;;;;16.65;8.32;;;;;;;;;;4763368;30;20473;-81
2022/12/12 05:30:05;;;;;;;16.95;8.82;;;;;;;;;;4761456;30;20031;-80
2022/12/12 05:32:30;;;;;;;16.10;8.90;;;;;;;;;;4758761;30;20438;-79
2022/12/12 05:34:56;;;;;;;16.67;9.25;;;;;;;;;;4746559;30;20072;-80
2022/12/12 05:37:21;;;;;;;16.83;7.90;;;;;;;;;;4764442;30;20451;-80
2022/12/12 05:39:46;;;;;;;18.25;8.90;;;;;;;;;;4746101;30;20059;-81
2022/12/12 05:42:12;;;;;;;17.38;9.23;;;;;;;;;;4745167;30;20315;-81
2022/12/12 05:44:37;;;;;;;17.85;8.95;;;;;;;;;;4763207;30;20042;-81
2022/12/12 05:47:02;;;;;;;15.90;8.52;;;;;;;;;;4745655;30;20093;-81
2022/12/12 05:49:28;;;;;;;14.48;8.13;;;;;;;;;;4743384;30;20036;-81
2022/12/12 05:51:53;;;;;;;18.10;8.98;;;;;;;;;;4742758;30;20036;-80
2022/12/12 05:54:18;;;;;;;16.88;8.55;;;;;;;;;;4761790;30;20054;-81
2022/12/12 05:56:44;;;;;;;18.23;9.68;;;;;;;;;;4761920;30;20038;-81
2022/12/12 05:59:09;;;;;;;20.60;9.55;;;;;;;;;;4746090;30;20379;-81
2022/12/12 06:01:35;;;;;;;18.70;10.20;;;;;;;;;;4744631;30;20119;-81
2022/12/12 06:04:01;;;;;;;16.40;8.98;;;;;;;;;;4748872;30;20040;-81
2022/12/12 06:06:26;;;;;;;19.48;9.98;;;;;;;;;;4744006;30;20035;-81
2022/12/12 06:08:52;;;;;;;17.80;9.13;;;;;;;;;;4747969;30;20035;-81
2022/12/12 06:11:17;;;;;;;17.95;8.48;;;;;;;;;;4772418;30;20034;-81
2022/12/12 06:13:42;;;;;;;16.15;8.45;;;;;;;;;;4757919;30;20772;-81
2022/12/12 06:16:11;;;;;;;18.73;9.75;;;;;;;;;;4740106;30;20039;-81
2022/12/12 06:18:37;;;;;;;17.67;8.93;;;;;;;;;;4743787;30;20164;-81
2022/12/12 06:21:04;;;;;;;19.15;9.27;;;;;;;;;;4763460;30;20039;-81
2022/12/12 06:23:29;;;;;;;19.70;9.23;;;;;;;;;;4746108;30;20565;-82
2022/12/12 06:25:55;;;;;;;20.48;9.77;;;;;;;;;;4758744;30;20114;-81
2022/12/12 06:28:20;;;;;;;17.45;9.15;;;;;;;;;;4763204;30;20032;-81
2022/12/12 06:30:45;;;;;;;16.58;8.05;;;;;;;;;;4760089;30;20036;-81
2022/12/12 06:33:11;;;;;;;17.42;9.10;;;;;;;;;;4763085;30;20040;-80
2022/12/12 06:35:36;;;;;;;16.05;8.60;;;;;;;;;;4765724;30;20054;-81
2022/12/12 06:38:02;;;;;;;18.48;8.85;;;;;;;;;;4765116;30;20085;-81
2022/12/12 06:40:27;;;;;;;20.02;9.10;;;;;;;;;;4748321;30;20481;-81
2022/12/12 06:42:52;;;;;;;19.15;9.38;;;;;;;;;;4752890;30;20036;-81
2022/12/12 06:45:18;;;;;;;19.23;9.00;;;;;;;;;;4749138;30;20031;-81
2022/12/12 06:47:43;;;;;;;17.25;9.05;;;;;;;;;;4765061;30;20455;-82
2022/12/12 06:50:09;;;;;;;15.25;8.00;;;;;;;;;;4750032;30;20118;-80
2022/12/12 06:52:34;;;;;;;18.58;9.57;;;;;;;;;;4766383;30;20047;-81
2022/12/12 06:54:59;;;;;;;18.85;9.80;;;;;;;;;;4762387;30;20071;-81
2022/12/12 06:57:25;;;;;;;19.60;9.25;;;;;;;;;;4767917;30;20039;-81
2022/12/12 06:59:51;;;;;;;18.60;9.07;;;;;;;;;;4763993;30;20539;-81
2022/12/12 07:02:16;;;;;;;21.42;9.93;;;;;;;;;;4748662;30;20030;-80
2022/12/12 07:04:42;;;;;;;17.30;9.48;;;;;;;;;;4764837;30;20445;-80
2022/12/12 07:07:07;;;;;;;16.85;7.90;;;;;;;;;;4765776;30;20123;-80
2022/12/12 07:09:33;;;;;;;19.33;8.75;;;;;;;;;;4762047;30;20432;-81
2022/12/12 07:11:58;;;;;;;17.88;8.98;;;;;;;;;;4765618;30;20036;-81
2022/12/12 07:14:24;;;;;;;19.33;8.77;;;;;;;;;;4758846;30;20028;-80
2022/12/12 07:16:49;;;;;;;15.88;8.30;;;;;;;;;;4748360;30;20035;-81
2022/12/12 07:19:15;;;;;;;20.50;9.68;;;;;;;;;;4759974;30;20131;-80
2022/12/12 07:21:40;;;;;;;16.80;7.85;;;;;;;;;;4769332;30;20609;-80
2022/12/12 07:24:06;;;;;;;18.58;8.90;;;;;;;;;;4762886;30;20028;-80
2022/12/12 07:26:31;;;;;;;19.23;9.30;;;;;;;;;;4765314;30;20558;-80
2022/12/12 07:28:56;;;;;;;19.33;8.68;;;;;;;;;;4767383;30;20032;-81
2022/12/12 07:31:24;;;;;;;17.95;9.38;;;;;;;;;;4750510;30;20031;-80
2022/12/12 07:33:50;;;;;;;16.35;7.85;;;;;;;;;;4762969;30;20026;-80
2022/12/12 07:36:16;;;;;;;16.63;8.63;;;;;;;;;;4752726;30;20417;-80
2022/12/12 07:38:42;;;;;;;18.30;8.70;;;;;;;;;;4768084;30;20037;-80
2022/12/12 07:41:13;;;;;;;16.35;8.02;;;;;;;;;;4766682;30;20059;-80
2022/12/12 07:43:40;;;;;;;18.23;9.00;;;;;;;;;;4749559;30;20485;-80
2022/12/12 07:46:07;;;;;;;17.08;9.00;;;;;;;;;;4756905;30;20119;-80
2022/12/12 07:48:33;;;;;;;17.05;9.18;;;;;;;;;;4755535;30;20031;-80
2022/12/12 07:50:59;;;;;;;17.02;8.68;;;;;;;;;;4749840;30;20096;-80
2022/12/12 07:53:25;;;;;;;17.83;8.80;;;;;;;;;;4771517;30;20024;-81
2022/12/12 07:55:50;;;;;;;17.67;9.13;;;;;;;;;;4772545;30;20106;-81
2022/12/12 07:58:16;;;;;;;16.85;8.10;;;;;;;;;;4761595;30;20043;-80
2022/12/12 08:00:41;;;;;;;18.65;8.43;;;;;;;;;;4765249;30;20071;-80
2022/12/12 08:03:07;;;;;;;16.73;8.40;;;;;;;;;;4749368;30;20052;-80
2022/12/12 08:05:32;;;;;;;18.98;9.23;;;;;;;;;;4762615;30;20464;-80
2022/12/12 08:07:57;;;;;;;20.65;8.20;;;;;;;;;;4772262;30;20028;-80
2022/12/12 08:10:23;;;;;;;18.63;9.07;;;;;;;;;;4765460;30;20037;-80
2022/12/12 08:12:48;;;;;;;18.80;8.90;;;;;;;;;;4764628;30;20042;-80
2022/12/12 08:15:15;;;;;;;15.95;7.90;;;;;;;;;;4745402;30;20477;-80
2022/12/12 08:17:41;;;;;;;16.00;8.43;;;;;;;;;;4760507;30;20028;-80
2022/12/12 08:20:07;;;;;;;15.75;8.02;;;;;;;;;;4748921;30;20052;-80
2022/12/12 08:22:33;;;;;;;21.10;9.57;;;;;;;;;;4749516;30;20059;-80
2022/12/12 08:24:58;;;;;;;16.25;8.35;;;;;;;;;;4766337;30;20082;-80
2022/12/12 08:27:24;;;;;;;20.88;9.13;;;;;;;;;;4752900;30;20032;-81
2022/12/12 08:29:51;;;;;;;17.77;8.68;;;;;;;;;;4752548;30;20027;-80
2022/12/12 08:32:17;;;;;;;19.85;9.75;;;;;;;;;;4749035;30;20511;-80
2022/12/12 08:34:42;;;;;;;20.45;9.20;;;;;;;;;;4771962;30;20296;-80
2022/12/12 08:37:08;;;;;;;21.58;9.43;;;;;;;;;;4748051;30;20040;-80
2022/12/12 08:39:33;;;;;;;19.80;9.30;;;;;;;;;;4759246;30;20043;-80
2022/12/12 08:41:59;;;;;;;17.00;8.55;;;;;;;;;;4763390;30;20036;-80
2022/12/12 08:44:25;;;;;;;20.85;9.38;;;;;;;;;;4762212;30;20114;-80
2022/12/12 08:46:50;;;;;;;19.00;8.48;;;;;;;;;;4766656;30;20035;-80
2022/12/12 08:49:15;;;;;;;20.00;9.60;;;;;;;;;;4752370;30;20039;-80
2022/12/12 08:51:41;;;;;;;20.45;9.10;;;;;;;;;;4747315;30;20131;-80
2022/12/12 08:54:07;;;;;;;20.63;8.75;;;;;;;;;;4776174;30;20393;-81
2022/12/12 08:56:32;;;;;;;19.60;9.38;;;;;;;;;;4766669;30;20035;-80
2022/12/12 08:58:57;;;;;;;21.25;8.35;;;;;;;;;;4767088;30;20089;-80
2022/12/12 09:01:25;;;;;;;20.23;9.43;;;;;;;;;;4763201;30;20074;-81
2022/12/12 09:03:53;;;;;;;21.73;8.88;;;;;;;;;;4753629;30;20071;-80
2022/12/12 09:06:20;;;;;;;19.80;9.35;;;;;;;;;;4757778;30;20129;-81
2022/12/12 09:08:45;;;;;;;17.80;8.93;;;;;;;;;;4765669;30;20444;-81
2022/12/12 09:11:12;;;;;;;18.70;8.77;;;;;;;;;;4766739;30;20036;-81
2022/12/12 09:13:37;;;;;;;20.48;8.30;;;;;;;;;;4761725;30;20043;-80
2022/12/12 09:16:04;;;;;;;19.08;9.23;;;;;;;;;;4765471;30;20064;-80
2022/12/12 09:18:30;;;;;;;18.85;8.90;;;;;;;;;;4765279;30;20417;-81
2022/12/12 09:20:57;;;;;;;17.55;8.05;;;;;;;;;;4748031;30;20032;-81
2022/12/12 09:23:24;;;;;;;16.70;8.07;;;;;;;;;;4763194;30;20068;-80
2022/12/12 09:25:49;;;;;;;20.20;8.68;;;;;;;;;;4743088;30;20047;-80
2022/12/12 09:28:17;;;;;;;22.67;8.40;;;;;;;;;;4748011;30;20048;-80
2022/12/12 09:30:43;;;;;;;18.33;7.70;;;;;;;;;;4748636;30;20330;-80
2022/12/12 09:33:09;;;;;;;18.08;8.25;;;;;;;;;;4760702;30;20120;-81
2022/12/12 09:35:34;;;;;;;19.65;7.45;;;;;;;;;;4744774;30;20035;-81
2022/12/12 09:38:00;;;;;;;19.98;7.97;;;;;;;;;;4749781;30;20032;-80
2022/12/12 09:40:36;;;;;;;16.08;8.02;;;;;;;;;;4766154;30;20059;-81
2022/12/12 09:43:02;;;;;;;19.25;8.15;;;;;;;;;;4752238;30;20521;-81
2022/12/12 09:45:31;;;;;;;21.75;9.73;;;;;;;;;;4752365;30;20643;-80
2022/12/12 09:48:00;;;;;;;21.60;8.90;;;;;;;;;;4766551;30;20035;-81
2022/12/12 09:50:35;;;;;;;18.77;8.68;;;;;;;;;;4768854;30;20066;-80
2022/12/12 09:53:12;;;;;;;18.30;8.25;;;;;;;;;;4762195;30;20578;-80
2022/12/12 09:56:03;;;;;;;18.58;8.25;;;;;;;;;;4766273;30;20030;-80
2022/12/12 09:58:38;;;;;;;17.65;7.95;;;;;;;;;;4741632;30;20043;-81
2022/12/12 10:01:31;;;;;;;15.98;7.10;;;;;;;;;;4768212;30;20039;-80
2022/12/12 10:04:09;;;;;;;19.95;8.30;;;;;;;;;;4755511;30;20036;-81
2022/12/12 10:06:43;;;;;;;19.67;8.73;;;;;;;;;;4760230;30;20035;-80
2022/12/12 10:09:23;;;;;;;17.42;7.55;;;;;;;;;;4763257;30;20031;-80
2022/12/12 10:11:51;;;;;;;16.83;7.95;;;;;;;;;;4767911;30;20438;-81
2022/12/12 10:14:45;;;;;;;18.50;8.10;;;;;;;;;;4765220;30;20078;-80
2022/12/12 10:17:26;;;;;;;19.73;7.30;;;;;;;;;;4752139;30;20498;-81
2022/12/12 10:19:57;;;;;;;20.00;8.05;;;;;;;;;;4762867;30;20461;-81
2022/12/12 10:22:31;;;;;;;22.25;9.68;;;;;;;;;;4756703;30;20044;-81
2022/12/12 10:25:05;;;;;;;24.48;10.20;;;;;;;;;;4767566;30;20074;-80
2022/12/12 10:27:30;;;;;;;20.85;9.43;;;;;;;;;;4766154;30;20039;-81
2022/12/12 10:30:05;;;;;;;22.17;10.05;;;;;;;;;;4773179;30;20051;-81
2022/12/12 10:32:51;;;;;;;20.95;8.52;;;;;;;;;;4768790;30;20036;-81
2022/12/12 10:35:26;;;;;;;22.27;10.20;;;;;;;;;;4766085;30;20035;-81
2022/12/12 10:38:07;;;;;;;18.98;8.73;;;;;;;;;;4762507;30;20587;-81
2022/12/12 10:40:45;;;;;;;17.00;7.93;;;;;;;;;;4754659;30;20547;-81
2022/12/12 10:43:16;;;;;;;21.92;8.35;;;;;;;;;;4764070;30;20118;-81
2022/12/12 10:46:26;;;;;;;17.35;7.85;;;;;;;;;;4760654;30;20040;-80
2022/12/12 10:48:52;;;;;;;18.38;8.07;;;;;;;;;;4694227;30;20045;-81
2022/12/12 10:51:21;;;;;;;16.60;7.07;;;;;;;;;;4756124;30;20131;-81
2022/12/12 10:53:46;;;;;;;15.43;7.10;;;;;;;;;;4762361;30;20093;-80
2022/12/12 10:56:18;;;;;;;17.00;7.20;;;;;;;;;;4756748;30;20035;-81
2022/12/12 10:58:54;;;;;;;16.42;7.30;;;;;;;;;;4766237;30;20093;-81
2022/12/12 11:01:33;;;;;;;16.73;7.70;;;;;;;;;;4764256;30;20539;-81
2022/12/12 11:04:00;;;;;;;14.90;7.18;;;;;;;;;;4749884;30;20126;-80
2022/12/12 11:06:58;;;;;;;13.77;6.82;;;;;;;;;;4755100;30;20048;-80
2022/12/12 11:09:26;;;;;;;16.85;7.07;;;;;;;;;;4710321;30;20048;-80
2022/12/12 11:11:58;;;;;;;15.25;6.90;;;;;;;;;;4752536;30;20071;-80
2022/12/12 11:14:50;;;;;;;14.73;6.28;;;;;;;;;;4746558;30;20062;-80
2022/12/12 11:17:29;;;;;;;15.70;6.85;;;;;;;;;;4771937;30;20044;-80
2022/12/12 11:20:00;;;;;;;17.30;7.65;;;;;;;;;;4771214;30;20065;-80
2022/12/12 11:22:26;;;;;;;17.45;7.60;;;;;;;;;;4754939;30;20039;-81
2022/12/12 11:24:52;;;;;;;13.00;6.72;;;;;;;;;;4770213;30;20048;-80
2022/12/12 11:27:31;;;;;;;14.68;6.50;;;;;;;;;;4770535;30;20036;-80
2022/12/12 11:30:02;;;;;;;15.27;6.13;;;;;;;;;;4772201;30;20434;-80
2022/12/12 11:32:36;;;;;;;15.20;7.15;;;;;;;;;;4754940;30;20032;-80
2022/12/12 11:35:06;;;;;;;12.63;6.18;;;;;;;;;;4772516;30;20504;-80
2022/12/12 11:37:38;;;;;;;14.65;6.00;;;;;;;;;;4751477;30;20036;-81
2022/12/12 11:40:05;;;;;;;13.77;6.72;;;;;;;;;;4765940;30;20040;-81
2022/12/12 11:42:32;;;;;;;17.75;7.80;;;;;;;;;;4755254;30;20039;-79
2022/12/12 11:45:09;;;;;;;18.00;8.10;;;;;;;;;;4758405;30;20105;-80
2022/12/12 11:47:40;;;;;;;14.98;7.53;;;;;;;;;;4751600;30;20043;-81
2022/12/12 11:50:43;;;;;;;13.00;6.95;;;;;;;;;;4763168;30;20063;-80
2022/12/12 11:53:08;;;;;;;14.93;6.73;;;;;;;;;;4753960;30;20040;-81
2022/12/12 11:55:36;;;;;;;14.68;6.10;;;;;;;;;;4766758;30;20088;-81
2022/12/12 11:58:46;;;;;;;14.73;6.28;;;;;;;;;;4753316;30;20028;-80
2022/12/12 12:01:22;;;;;;;13.75;5.90;;;;;;;;;;4702168;30;20048;-81
2022/12/12 12:04:01;;;;;;;14.73;6.45;;;;;;;;;;4709514;30;20116;-81
2022/12/12 12:06:46;;;;;;;14.10;6.00;;;;;;;;;;4730667;30;20489;-81
2022/12/12 12:09:23;;;;;;;15.38;7.25;;;;;;;;;;4763772;30;20514;-81
2022/12/12 12:11:56;;;;;;;15.35;7.05;;;;;;;;;;4766027;30;20557;-81
2022/12/12 12:14:50;;;;;;;14.88;5.75;;;;;;;;;;4770766;30;20032;-81
2022/12/12 12:17:22;;;;;;;15.77;6.68;;;;;;;;;;4769808;30;20038;-79
2022/12/12 12:20:05;;;;;;;17.45;6.25;;;;;;;;;;4770153;30;22170;-81
2022/12/12 12:22:31;;;;;;;16.17;7.28;;;;;;;;;;4768008;30;20039;-81
2022/12/12 12:25:22;;;;;;;15.38;6.55;;;;;;;;;;4752002;30;20076;-80
2022/12/12 12:28:05;;;;;;;12.68;5.70;;;;;;;;;;4772891;30;20111;-81
2022/12/12 12:30:53;;;;;;;12.48;5.43;;;;;;;;;;4770177;29;20066;-81
2022/12/12 12:33:40;;;;;;;12.68;5.88;;;;;;;;;;4764547;30;20081;-82
2022/12/12 12:36:08;;;;;;;12.23;5.90;;;;;;;;;;4765049;30;20035;-81
2022/12/12 12:38:54;;;;;;;10.60;5.30;;;;;;;;;;4752242;30;20035;-81
2022/12/12 12:41:25;;;;;;;13.82;5.68;;;;;;;;;;4758352;30;20042;-81
2022/12/12 12:44:00;;;;;;;10.82;5.13;;;;;;;;;;4766849;30;20048;-81
2022/12/12 12:46:53;;;;;;;13.90;5.90;;;;;;;;;;4754969;30;20562;-81
2022/12/12 12:49:23;;;;;;;13.95;5.35;;;;;;;;;;4756654;30;20094;-81
2022/12/12 12:51:52;;;;;;;10.52;4.60;;;;;;;;;;4772217;30;20039;-82
2022/12/12 12:54:17;;;;;;;14.93;5.72;;;;;;;;;;4767986;30;20085;-81
2022/12/12 12:56:49;;;;;;;14.07;6.30;;;;;;;;;;4767458;30;20043;-81
2022/12/12 12:59:23;;;;;;;11.05;5.38;;;;;;;;;;4745817;30;20595;-81
2022/12/12 13:01:52;;;;;;;15.73;5.32;;;;;;;;;;4747718;30;20501;-81
2022/12/12 13:04:25;;;;;;;12.77;5.55;;;;;;;;;;4762042;30;20032;-80
2022/12/12 13:06:59;;;;;;;14.40;6.30;;;;;;;;;;4765141;30;20118;-81
2022/12/12 13:09:27;;;;;;;11.23;5.82;;;;;;;;;;4757805;30;20123;-81
2022/12/12 13:12:22;;;;;;;10.93;5.43;;;;;;;;;;4760580;30;20044;-81
2022/12/12 13:14:57;;;;;;;12.82;6.07;;;;;;;;;;4740398;30;20040;-77
2022/12/12 13:17:37;;;;;;;13.10;6.22;;;;;;;;;;4766078;30;20032;-81
2022/12/12 13:20:03;;;;;;;14.98;6.13;;;;;;;;;;4759659;30;20524;-81
2022/12/12 13:22:43;;;;;;;15.82;6.70;;;;;;;;;;4750729;30;20031;-79
2022/12/12 13:25:18;;;;;;;14.85;6.15;;;;;;;;;;4749306;30;20138;-80
2022/12/12 13:27:49;;;;;;;14.10;5.60;;;;;;;;;;4768894;30;20504;-81
2022/12/12 13:30:22;;;;;;;12.52;5.75;;;;;;;;;;4743010;30;20062;-80
2022/12/12 13:32:57;;;;;;;14.57;5.68;;;;;;;;;;4755218;30;20031;-80
2022/12/12 13:35:41;;;;;;;13.40;5.97;;;;;;;;;;4765216;30;20036;-81
2022/12/12 13:38:19;;;;;;;11.85;5.00;;;;;;;;;;4758668;30;20035;-82
2022/12/12 13:40:55;;;;;;;12.52;5.18;;;;;;;;;;4746878;30;20040;-81
2022/12/12 13:43:42;;;;;;;24.45;9.90;;;;;;;;;;4750518;30;20036;-79
2022/12/12 13:46:35;;;;;;;21.77;9.00;;;;;;;;;;4759866;30;20039;-81
2022/12/12 13:49:06;;;;;;;18.77;7.60;;;;;;;;;;4746244;30;20048;-81
2022/12/12 13:51:34;;;;;;;18.27;7.10;;;;;;;;;;4745119;30;20614;-82
2022/12/12 13:54:05;;;;;;;14.85;7.10;;;;;;;;;;4766948;30;20435;-81
2022/12/12 13:56:45;;;;;;;14.95;6.10;;;;;;;;;;4749805;30;20043;-81
2022/12/12 13:59:24;;;;;;;13.13;5.72;;;;;;;;;;4745494;30;20032;-79
2022/12/12 14:02:00;;;;;;;14.68;5.97;;;;;;;;;;4757007;30;20516;-81
2022/12/12 14:04:30;;;;;;;14.90;6.65;;;;;;;;;;4764930;30;20044;-81
2022/12/12 14:07:06;;;;;;;12.70;6.05;;;;;;;;;;4762053;30;20031;-81
2022/12/12 14:09:39;;;;;;;13.18;6.28;;;;;;;;;;4763592;30;20047;-81
2022/12/12 14:12:08;;;;;;;12.10;6.15;;;;;;;;;;4763609;30;20566;-81
2022/12/12 14:14:35;;;;;;;14.60;6.75;;;;;;;;;;4759917;30;20028;-81
2022/12/12 14:17:04;;;;;;;14.18;6.97;;;;;;;;;;4767644;30;20047;-80
2022/12/12 14:19:35;;;;;;;15.98;6.65;;;;;;;;;;4765219;30;20601;-81
2022/12/12 14:22:01;;;;;;;13.05;6.30;;;;;;;;;;4746491;30;20067;-81
2022/12/12 14:24:32;;;;;;;12.90;5.38;;;;;;;;;;4757739;30;20071;-79
2022/12/12 14:27:05;;;;;;;13.40;6.10;;;;;;;;;;4757568;30;20036;-81
2022/12/12 14:29:32;;;;;;;12.55;5.80;;;;;;;;;;4746221;30;20400;-81
2022/12/12 14:32:00;;;;;;;14.18;5.93;;;;;;;;;;4764055;30;20382;-81
2022/12/12 14:34:38;;;;;;;12.82;6.22;;;;;;;;;;4759622;30;20047;-82
2022/12/12 14:37:22;;;;;;;15.20;6.28;;;;;;;;;;4765544;30;20405;-81
2022/12/12 14:40:11;;;;;;;12.63;5.85;;;;;;;;;;4767248;30;20035;-81
2022/12/12 14:42:45;;;;;;;12.88;5.85;;;;;;;;;;4768207;30;20481;-80
2022/12/12 14:45:33;;;;;;;15.90;6.47;;;;;;;;;;4752193;30;20417;-80
2022/12/12 14:48:20;;;;;;;13.55;5.55;;;;;;;;;;4750712;30;20030;-80
2022/12/12 14:50:50;;;;;;;12.60;5.28;;;;;;;;;;4755861;30;20042;-80
2022/12/12 14:53:19;;;;;;;15.00;6.22;;;;;;;;;;4762323;30;20036;-82
2022/12/12 14:55:54;;;;;;;12.82;5.55;;;;;;;;;;4752955;30;20046;-81
2022/12/12 14:58:26;;;;;;;14.45;5.43;;;;;;;;;;4754505;30;20039;-81
2022/12/12 15:00:55;;;;;;;14.25;6.20;;;;;;;;;;4755762;30;20485;-81
2022/12/12 15:03:29;;;;;;;14.60;5.68;;;;;;;;;;4750426;30;20447;-80
2022/12/12 15:06:23;;;;;;;14.55;6.20;;;;;;;;;;4750404;30;20063;-81
2022/12/12 15:08:51;;;;;;;13.77;6.50;;;;;;;;;;4767426;30;20057;-81